Terminal Aerodrome Forecast
Issued by NWS Kansas City/Pleasant Hill, MO

Home | Current Version | Previous Version | Text Only | Print | Product List | Glossary On
Versions: 1 2 3 4 5 6 7 8 9 10 11 12 13 14 15
028
FTUS43 KEAX 262051 AAA
TAFMCI
TAF AMD
KMCI 262051Z 2621/2718 19010KT 6SM -SHRA SCT060 BKN100
     FM262200 16010KT P6SM SCT060 BKN100
     FM270400 12008KT P6SM VCTS BKN050CB
     FM270800 13007KT P6SM SCT020 BKN030
     FM271600 04007KT P6SM SCT030=

USA.gov is the U.S. government's official web portal to all federal, state and local government web resources and services.